Terminal Aerodrome Forecast
Issued by NWS

Home | Current Version | Previous Version | Graphics & Text | Print | Product List | Glossary Off
Versions: 1 2 3 4 5 6 7 8 9 10 11 12 13 14 15 16 17 18 19 20 21 22 23

455
FTUS43 KTOP 051120
TAFFOE
TAF
KFOE 051120Z 0512/0612 17006KT 6SM BR FEW006
     FM051600 18013G23KT P6SM SCT150
     FM060000 VRB03KT P6SM SCT150
     FM060700 34015KT P6SM BKN040=

USA.gov is the U.S. government's official web portal to all federal, state and local government web resources and services.